首页
METAR-TAF:

METAR-TAF

机场 :

Boscombe Down, 英格兰

纬度: 51-10N, 经度: 001-45W, 海拔: 124米

当前天气观测

该预报发布于43分钟前的00:50 UTC
风速6节,风向
温度 7°C
湿度 93%
气压 1006 hPa

METAR: EGDM 170050Z AUTO 19006KT //// // NCD 07/06 Q1006

时间: 02:33 (01:33 UTC)

预报

该预报发布于12小时和5分钟前的13:28 UTC
预报有效从16日的 15点(UTC)到 16日的 18点(UTC)
风速8节,风向西
能见度10公里或以上
少量云层高于3000英尺

TAF: EGDM 161328Z 1615/1618 28008KT 9999 FEW030

超过4000个机场的气象观测和天气预报(METAR&TAF报告)。

可查询的气象台以黄色和红色小点在地图上表示。

将鼠标移到小点上方,可查看气象台名称。

然后点击查看天气观测和预报。

如需切换地图:点击带黑十字的绿色按钮放大地图;点击带横线的绿色按钮缩小地图;或者点击绿色箭头查看邻近地区的地图。


METAR-TAF: